North Chelmsford, Massachusetts
Current Conditions -  °F | °C
As of 8:32 PM on Thursday 27 Nov 2014 (Local Time) from KASH Reporting Station
Overcast Overcast  
Wind Chill: 23°   Ceiling: 2800
Heat Index: 28°   Visibility: 10mi
Dew Point: 27°   Wind: 5mph
Humidity: 93%   Direction: 300°WNW
Pressure: 30.02"   Gusts: NA
Location:  42.64°N, 71.38°W
Report Text: KASH 280132Z AUTO 30004KT 10SM OVC028 M02/M03 A3002 RMK AO2 $
Loading
Personal Weather Stations






























Interactive Weather Map New forecast layout! Learn more

10-Day Weather Forecast

Advertisements
Track Severe Weather on mobile